createdAt,value
2023-10-23T00:00:20.509Z,66.35
2023-10-23T00:01:22.200Z,66.65
2023-10-23T00:02:24.177Z,67.05
2023-10-23T00:03:25.916Z,67.08
2023-10-23T00:04:27.740Z,66.02
2023-10-23T00:05:29.954Z,66.16
2023-10-23T00:06:32.277Z,65.87
2023-10-23T00:07:34.124Z,65.23
2023-10-23T00:08:35.976Z,65.98
2023-10-23T00:09:37.647Z,66.50
2023-10-23T00:10:39.298Z,66.37
2023-10-23T00:11:40.993Z,66.58
2023-10-23T00:12:42.724Z,67.06
2023-10-23T00:13:44.312Z,67.32
2023-10-23T00:14:45.915Z,67.64
2023-10-23T00:15:47.905Z,67.79
2023-10-23T00:16:49.568Z,67.93
2023-10-23T00:17:51.291Z,68.14
2023-10-23T00:18:53.655Z,67.58
2023-10-23T00:19:55.314Z,67.84
2023-10-23T00:20:57.370Z,68.17
2023-10-23T00:21:59.031Z,68.44
2023-10-23T00:23:00.602Z,68.10
2023-10-23T00:24:02.159Z,68.06
2023-10-23T00:25:04.569Z,68.00
2023-10-23T00:26:06.915Z,68.02
2023-10-23T00:27:08.547Z,67.87
2023-10-23T00:28:10.245Z,67.75
2023-10-23T00:29:11.901Z,67.78
2023-10-23T00:30:13.900Z,67.97
2023-10-23T00:31:15.554Z,68.42
2023-10-23T00:32:17.267Z,68.17
2023-10-23T00:33:19.068Z,68.58
2023-10-23T00:34:20.903Z,68.74
2023-10-23T00:35:22.826Z,68.34
2023-10-23T00:36:24.565Z,68.24
2023-10-23T00:37:26.308Z,68.48
2023-10-23T00:38:29.972Z,68.79
2023-10-23T00:39:31.711Z,68.66
2023-10-23T00:40:33.392Z,68.55
2023-10-23T00:41:35.029Z,68.51
2023-10-23T00:42:36.705Z,68.38
2023-10-23T00:43:38.311Z,68.47
2023-10-23T00:44:39.909Z,68.05
2023-10-23T00:45:51.231Z,68.04
2023-10-23T00:46:53.683Z,68.22
2023-10-23T00:47:55.808Z,68.37
2023-10-23T00:48:59.592Z,68.45
2023-10-23T00:50:01.474Z,68.95
2023-10-23T00:51:04.302Z,69.46
2023-10-23T00:52:07.023Z,68.99
2023-10-23T00:53:09.069Z,68.87
2023-10-23T00:54:10.796Z,69.24
2023-10-23T00:55:13.164Z,69.38
2023-10-23T00:56:15.086Z,69.47
2023-10-23T00:57:17.025Z,69.34
2023-10-23T00:58:19.737Z,68.78
2023-10-23T00:59:22.296Z,68.70
2023-10-23T01:00:24.198Z,68.93
2023-10-23T01:01:28.005Z,68.82
2023-10-23T01:02:29.947Z,68.74
2023-10-23T01:03:32.611Z,68.79
2023-10-23T01:04:34.237Z,68.78
2023-10-23T01:05:38.325Z,68.75
2023-10-23T01:06:40.308Z,68.44
2023-10-23T01:07:41.990Z,68.10
2023-10-23T01:08:44.226Z,67.74
2023-10-23T01:09:45.927Z,67.65
2023-10-23T01:10:48.364Z,67.70
2023-10-23T01:11:50.133Z,68.02
2023-10-23T01:12:54.615Z,67.46
2023-10-23T01:13:56.275Z,67.66
2023-10-23T01:14:57.917Z,67.53
2023-10-23T01:15:59.492Z,67.41
2023-10-23T01:17:01.153Z,67.39
2023-10-23T01:18:04.140Z,67.40
2023-10-23T01:19:06.155Z,67.26
2023-10-23T01:20:10.792Z,67.08
2023-10-23T01:21:12.416Z,67.04
2023-10-23T01:22:14.000Z,67.40
2023-10-23T01:23:15.729Z,66.61
2023-10-23T01:24:18.084Z,67.00
2023-10-23T01:25:19.687Z,66.87
2023-10-23T01:26:21.317Z,67.13
2023-10-23T01:27:22.959Z,66.89
2023-10-23T01:28:24.591Z,66.21
2023-10-23T01:29:26.184Z,66.13
2023-10-23T01:30:27.788Z,66.16
2023-10-23T01:31:29.359Z,66.20
2023-10-23T01:32:30.990Z,66.47
2023-10-23T01:33:32.700Z,66.21
2023-10-23T01:34:34.364Z,66.47
2023-10-23T01:35:36.012Z,66.03
2023-10-23T01:36:39.151Z,66.01
2023-10-23T01:37:43.919Z,65.91
2023-10-23T01:38:45.545Z,65.64
2023-10-23T01:39:47.153Z,65.97
2023-10-23T01:40:48.810Z,65.73
2023-10-23T01:41:50.427Z,65.86
2023-10-23T01:42:52.108Z,65.76
2023-10-23T01:43:53.707Z,65.25
2023-10-23T01:44:58.805Z,65.03
2023-10-23T01:46:00.879Z,64.79
2023-10-23T01:47:02.896Z,64.97
2023-10-23T01:48:05.081Z,64.79
2023-10-23T01:49:06.798Z,64.75
2023-10-23T01:50:08.670Z,64.91
2023-10-23T01:51:10.781Z,65.09
2023-10-23T01:52:12.379Z,65.17
2023-10-23T01:53:14.525Z,64.99
2023-10-23T01:54:16.225Z,64.74
2023-10-23T01:55:18.171Z,64.60
2023-10-23T01:56:19.763Z,63.83
2023-10-23T01:57:21.869Z,64.14
2023-10-23T01:58:23.473Z,64.39
2023-10-23T01:59:25.061Z,65.02
2023-10-23T02:00:26.963Z,64.94
2023-10-23T02:01:28.911Z,65.27
2023-10-23T02:02:31.274Z,65.18
2023-10-23T02:03:33.334Z,65.29
2023-10-23T02:04:39.993Z,66.07
2023-10-23T02:05:41.873Z,66.05
2023-10-23T02:06:43.692Z,66.03
2023-10-23T02:07:45.378Z,65.76
2023-10-23T02:08:47.042Z,65.67
2023-10-23T02:09:48.663Z,65.74
2023-10-23T02:10:50.264Z,65.88
2023-10-23T02:11:51.868Z,66.20
2023-10-23T02:12:53.563Z,66.60
2023-10-23T02:13:55.382Z,66.71
2023-10-23T02:14:57.552Z,67.09
2023-10-23T02:15:59.277Z,66.90
2023-10-23T02:17:00.944Z,67.14
2023-10-23T02:18:02.674Z,67.46
2023-10-23T02:19:04.675Z,68.08
2023-10-23T02:20:06.703Z,68.10
2023-10-23T02:21:08.586Z,68.47
2023-10-23T02:22:10.238Z,68.75
2023-10-23T02:23:11.807Z,68.82
2023-10-23T02:24:13.392Z,68.87
2023-10-23T02:25:17.852Z,69.35
2023-10-23T02:26:19.760Z,69.58
2023-10-23T02:27:21.421Z,69.49
2023-10-23T02:28:23.182Z,69.65
2023-10-23T02:29:24.795Z,69.16
2023-10-23T02:30:26.477Z,69.37
2023-10-23T02:31:28.160Z,69.19
2023-10-23T02:32:29.850Z,69.06
2023-10-23T02:33:32.004Z,68.66
2023-10-23T02:34:34.338Z,69.06
2023-10-23T02:35:37.573Z,68.64
2023-10-23T02:36:39.217Z,67.66
2023-10-23T02:37:40.828Z,67.39
2023-10-23T02:38:43.341Z,66.50
2023-10-23T02:39:45.060Z,66.81
2023-10-23T02:40:53.834Z,67.13
2023-10-23T02:41:55.429Z,66.54
2023-10-23T02:42:57.134Z,67.12
2023-10-23T02:43:58.940Z,67.44
2023-10-23T02:45:00.599Z,67.25
2023-10-23T02:46:03.036Z,67.49
2023-10-23T02:47:04.891Z,67.10
2023-10-23T02:48:06.744Z,67.01
2023-10-23T02:49:08.517Z,66.97
2023-10-23T02:50:10.545Z,67.20
2023-10-23T02:51:12.145Z,67.37
2023-10-23T02:52:14.127Z,67.37
2023-10-23T02:53:15.727Z,67.21
2023-10-23T02:54:17.543Z,67.01
2023-10-23T02:55:19.271Z,67.46
2023-10-23T02:56:20.962Z,67.44
2023-10-23T02:57:22.621Z,67.36
2023-10-23T02:58:24.257Z,67.62
2023-10-23T02:59:25.874Z,67.13
2023-10-23T03:00:27.724Z,67.05
2023-10-23T03:01:29.402Z,67.00
2023-10-23T03:02:31.024Z,67.14
2023-10-23T03:03:32.699Z,67.17
2023-10-23T03:04:34.661Z,67.32
2023-10-23T03:05:36.308Z,67.33
2023-10-23T03:06:37.983Z,67.08
2023-10-23T03:07:39.589Z,66.68
2023-10-23T03:08:41.699Z,67.24
2023-10-23T03:09:43.446Z,67.33
2023-10-23T03:10:45.096Z,67.29
2023-10-23T03:11:46.730Z,67.73
2023-10-23T03:12:48.401Z,67.32
2023-10-23T03:13:51.520Z,67.81
2023-10-23T03:14:53.351Z,67.95
2023-10-23T03:15:55.023Z,67.45
2023-10-23T03:16:56.768Z,67.33
2023-10-23T03:17:58.598Z,67.32
2023-10-23T03:19:00.587Z,67.35
2023-10-23T03:20:02.337Z,66.70
2023-10-23T03:21:04.555Z,66.34
2023-10-23T03:22:06.134Z,66.71
2023-10-23T03:23:07.838Z,66.26
2023-10-23T03:24:09.854Z,66.05
2023-10-23T03:25:11.554Z,65.93
2023-10-23T03:26:13.210Z,66.28
2023-10-23T03:27:14.900Z,66.21
2023-10-23T03:28:16.481Z,66.26
2023-10-23T03:29:18.260Z,66.13
2023-10-23T03:30:19.990Z,66.01
2023-10-23T03:31:21.688Z,66.30
2023-10-23T03:32:23.402Z,67.05
2023-10-23T03:33:25.015Z,66.55
2023-10-23T03:34:26.685Z,66.78
2023-10-23T03:35:28.272Z,67.07
2023-10-23T03:36:30.022Z,67.05
2023-10-23T03:37:32.008Z,66.83
2023-10-23T03:38:33.637Z,66.46
2023-10-23T03:39:35.946Z,66.98
2023-10-23T03:40:38.426Z,67.30
2023-10-23T03:41:39.996Z,67.57
2023-10-23T03:42:41.651Z,67.60
2023-10-23T03:43:43.333Z,67.39
2023-10-23T03:44:44.967Z,67.97
2023-10-23T03:45:46.605Z,67.62
2023-10-23T03:46:48.301Z,67.56
2023-10-23T03:47:50.006Z,67.99
2023-10-23T03:48:53.446Z,68.08
2023-10-23T03:49:55.152Z,67.82
2023-10-23T03:51:00.858Z,67.88
2023-10-23T03:52:02.442Z,68.32
2023-10-23T03:53:04.078Z,68.62
2023-10-23T03:54:05.739Z,68.54
2023-10-23T03:55:07.693Z,68.52
2023-10-23T03:56:09.354Z,68.77
2023-10-23T03:57:10.980Z,68.88
2023-10-23T03:58:12.550Z,68.90
2023-10-23T03:59:14.178Z,68.63
2023-10-23T04:00:16.224Z,69.07
2023-10-23T04:01:17.883Z,68.59
2023-10-23T04:02:19.460Z,68.28
2023-10-23T04:03:21.271Z,68.62
2023-10-23T04:04:23.050Z,69.02
2023-10-23T04:05:24.747Z,68.69
2023-10-23T04:06:26.404Z,68.96
2023-10-23T04:07:28.011Z,69.11
2023-10-23T04:08:29.592Z,69.19
2023-10-23T04:09:32.616Z,69.72
2023-10-23T04:10:34.274Z,69.94
2023-10-23T04:11:35.907Z,70.37
2023-10-23T04:12:37.763Z,69.95
2023-10-23T04:13:39.394Z,69.67
2023-10-23T04:14:40.976Z,69.39
2023-10-23T04:15:53.128Z,70.13
2023-10-23T04:16:54.749Z,70.37
2023-10-23T04:17:56.384Z,70.19
2023-10-23T04:18:58.045Z,70.43
2023-10-23T04:19:59.647Z,70.83
2023-10-23T04:21:09.419Z,70.50
2023-10-23T04:22:11.040Z,70.59
2023-10-23T04:23:12.630Z,70.62
2023-10-23T04:24:14.798Z,71.01
2023-10-23T04:25:19.008Z,70.76
2023-10-23T04:26:20.650Z,70.92
2023-10-23T04:27:22.327Z,71.32
2023-10-23T04:28:24.022Z,71.23
2023-10-23T04:29:25.604Z,71.40
2023-10-23T04:30:27.273Z,71.13
2023-10-23T04:31:28.989Z,71.55
2023-10-23T04:32:31.068Z,72.03
2023-10-23T04:33:33.456Z,72.46
2023-10-23T04:34:37.331Z,72.41
2023-10-23T04:35:38.921Z,72.70
2023-10-23T04:36:40.706Z,72.20
2023-10-23T04:37:42.280Z,72.43
2023-10-23T04:38:43.983Z,72.52
2023-10-23T04:39:45.902Z,72.16
2023-10-23T04:40:48.082Z,72.10
2023-10-23T04:41:49.764Z,72.26
2023-10-23T04:42:51.398Z,71.97
2023-10-23T04:43:53.045Z,72.36
2023-10-23T04:44:54.734Z,72.64
2023-10-23T04:45:58.162Z,72.52
2023-10-23T04:46:59.898Z,72.56
2023-10-23T04:48:01.634Z,72.54
2023-10-23T04:49:03.779Z,72.25
2023-10-23T04:50:08.506Z,72.19
2023-10-23T04:51:11.122Z,72.39
2023-10-23T04:52:12.727Z,72.26
2023-10-23T04:53:14.356Z,71.27
2023-10-23T04:54:15.915Z,71.56
2023-10-23T04:55:17.806Z,71.61
2023-10-23T04:56:19.434Z,71.67
2023-10-23T04:57:21.052Z,71.11
2023-10-23T04:58:22.776Z,71.30
2023-10-23T04:59:25.593Z,71.41
2023-10-23T05:00:27.785Z,71.03
2023-10-23T05:01:29.538Z,71.05
2023-10-23T05:02:31.196Z,71.08
2023-10-23T05:03:33.298Z,70.77
2023-10-23T05:04:35.123Z,70.68
2023-10-23T05:05:37.569Z,70.66
2023-10-23T05:06:39.611Z,70.52
2023-10-23T05:07:41.265Z,70.53
2023-10-23T05:08:42.937Z,70.31
2023-10-23T05:09:44.628Z,70.63
2023-10-23T05:10:46.299Z,70.50
2023-10-23T05:11:47.863Z,70.58
2023-10-23T05:12:51.089Z,70.53
2023-10-23T05:13:53.183Z,70.42
2023-10-23T05:14:55.110Z,70.22
2023-10-23T05:16:06.335Z,70.33
2023-10-23T05:17:08.514Z,70.12
2023-10-23T05:18:10.108Z,70.47
2023-10-23T05:19:11.794Z,70.11
2023-10-23T05:20:13.814Z,70.40
2023-10-23T05:21:15.714Z,70.19
2023-10-23T05:22:17.420Z,70.05
2023-10-23T05:23:19.006Z,69.86
2023-10-23T05:24:20.573Z,69.77
2023-10-23T05:25:22.182Z,69.52
2023-10-23T05:26:23.772Z,69.95
2023-10-23T05:27:25.902Z,69.18
2023-10-23T05:28:27.558Z,68.82
2023-10-23T05:29:29.108Z,69.02
2023-10-23T05:30:30.729Z,69.21
2023-10-23T05:31:32.426Z,69.10
2023-10-23T05:32:36.174Z,69.53
2023-10-23T05:33:38.302Z,70.02
2023-10-23T05:34:40.090Z,70.67
2023-10-23T05:35:41.647Z,70.50
2023-10-23T05:36:43.256Z,70.31
2023-10-23T05:37:44.913Z,71.47
2023-10-23T05:38:46.680Z,71.17
2023-10-23T05:39:48.312Z,70.53
2023-10-23T05:40:57.263Z,70.70
2023-10-23T05:41:58.881Z,71.15
2023-10-23T05:43:00.675Z,70.97
2023-10-23T05:44:02.272Z,70.25
2023-10-23T05:45:04.406Z,69.43
2023-10-23T05:46:06.514Z,68.97
2023-10-23T05:47:08.248Z,68.54
2023-10-23T05:48:09.836Z,68.22
2023-10-23T05:49:11.650Z,68.54
2023-10-23T05:50:13.259Z,68.00
2023-10-23T05:51:14.839Z,67.48
2023-10-23T05:52:16.446Z,67.54
2023-10-23T05:53:18.024Z,67.75
2023-10-23T05:54:19.578Z,67.53
2023-10-23T05:55:22.175Z,67.06
2023-10-23T05:56:23.765Z,66.98
2023-10-23T05:57:25.343Z,67.05
2023-10-23T05:58:26.928Z,66.69
2023-10-23T05:59:28.502Z,66.48
2023-10-23T06:00:30.223Z,66.59
2023-10-23T06:01:31.833Z,66.52
2023-10-23T06:02:33.506Z,67.17
2023-10-23T06:03:35.887Z,67.08
2023-10-23T06:04:37.873Z,67.64
2023-10-23T06:05:43.291Z,67.97
2023-10-23T06:06:45.014Z,68.17
2023-10-23T06:07:46.833Z,68.26
2023-10-23T06:08:48.586Z,68.48
2023-10-23T06:09:50.203Z,68.33
2023-10-23T06:10:51.896Z,67.08
2023-10-23T06:11:53.525Z,66.95
2023-10-23T06:12:55.131Z,67.01
2023-10-23T06:13:56.796Z,65.72
2023-10-23T06:15:00.173Z,64.95
2023-10-23T06:16:06.299Z,64.79
2023-10-23T06:17:08.913Z,64.81
2023-10-23T06:18:10.506Z,65.23
2023-10-23T06:19:12.052Z,64.27
2023-10-23T06:20:13.723Z,64.05
2023-10-23T06:21:15.377Z,63.86
2023-10-23T06:22:17.038Z,63.74
2023-10-23T06:23:18.585Z,63.44
2023-10-23T06:24:20.201Z,63.42
2023-10-23T06:25:21.802Z,63.61
2023-10-23T06:26:24.606Z,63.75
2023-10-23T06:27:26.311Z,64.69
2023-10-23T06:28:28.243Z,64.08
2023-10-23T06:29:29.829Z,64.64
2023-10-23T06:30:31.603Z,65.06
2023-10-23T06:31:33.422Z,64.57
2023-10-23T06:32:35.856Z,64.70
2023-10-23T06:33:40.224Z,64.21
2023-10-23T06:34:41.983Z,63.91
2023-10-23T06:35:43.633Z,63.38
2023-10-23T06:36:45.245Z,62.64
2023-10-23T06:37:46.953Z,61.53
2023-10-23T06:38:48.603Z,61.50
2023-10-23T06:39:50.364Z,61.72
2023-10-23T06:40:52.018Z,61.92
2023-10-23T06:41:53.831Z,61.12
2023-10-23T06:42:55.445Z,61.44
2023-10-23T06:43:57.006Z,61.97
2023-10-23T06:44:58.691Z,60.86
2023-10-23T06:46:02.109Z,61.63
2023-10-23T06:47:04.622Z,62.83
2023-10-23T06:48:06.539Z,61.87
2023-10-23T06:49:08.301Z,62.85
2023-10-23T06:50:11.891Z,62.11
2023-10-23T06:51:14.727Z,63.07
2023-10-23T06:52:16.437Z,61.86
2023-10-23T06:53:18.493Z,61.06
2023-10-23T06:54:22.868Z,60.15
2023-10-23T06:55:25.863Z,61.54
2023-10-23T06:56:27.515Z,61.18
2023-10-23T06:57:29.087Z,59.32
2023-10-23T06:58:30.716Z,58.89
2023-10-23T06:59:32.354Z,57.15
2023-10-23T07:00:33.946Z,56.92
2023-10-23T07:01:44.334Z,54.25
2023-10-23T07:02:49.973Z,54.04
2023-10-23T07:03:52.258Z,54.70
2023-10-23T07:04:54.161Z,52.46
2023-10-23T07:05:55.823Z,51.72
2023-10-23T07:06:57.797Z,52.01
2023-10-23T07:07:59.402Z,50.02
2023-10-23T07:09:01.057Z,50.13
2023-10-23T07:10:04.848Z,49.00
2023-10-23T07:11:17.354Z,49.23
2023-10-23T07:12:18.983Z,47.62
2023-10-23T07:13:23.076Z,47.98
2023-10-23T07:14:25.020Z,45.51
2023-10-23T07:15:26.713Z,44.52
2023-10-23T07:16:28.513Z,43.26
2023-10-23T07:17:30.885Z,43.27
2023-10-23T07:18:32.708Z,43.91
2023-10-23T07:19:34.419Z,43.72
2023-10-23T07:20:35.977Z,43.38
2023-10-23T07:21:38.001Z,42.42
2023-10-23T07:22:39.595Z,41.65
2023-10-23T07:23:41.252Z,42.41
2023-10-23T07:24:42.899Z,40.31
2023-10-23T07:25:44.537Z,38.98
2023-10-23T07:26:46.169Z,40.27
2023-10-23T07:27:48.450Z,38.83
2023-10-23T07:28:50.254Z,37.85
2023-10-23T07:29:52.216Z,38.10
2023-10-23T07:30:56.237Z,37.55
2023-10-23T07:31:57.831Z,37.46
2023-10-23T07:33:00.785Z,35.78
2023-10-23T07:34:04.869Z,35.67
2023-10-23T07:35:09.372Z,36.26
2023-10-23T07:36:12.658Z,35.24
2023-10-23T07:37:19.460Z,34.62
2023-10-23T07:38:21.295Z,33.52
2023-10-23T07:39:22.850Z,35.23
2023-10-23T07:40:24.461Z,34.00
2023-10-23T07:41:26.150Z,33.87
2023-10-23T07:42:27.793Z,32.59
2023-10-23T07:43:30.278Z,33.59
2023-10-23T07:44:31.883Z,33.62
2023-10-23T07:45:38.198Z,33.11
2023-10-23T07:46:40.331Z,33.11
2023-10-23T07:47:42.105Z,33.05
2023-10-23T07:48:43.796Z,33.24
2023-10-23T07:49:45.906Z,32.78
2023-10-23T07:50:47.442Z,31.58
2023-10-23T07:51:49.111Z,31.83
2023-10-23T07:52:51.731Z,31.31
2023-10-23T07:53:53.289Z,30.43
2023-10-23T07:54:54.995Z,31.22
2023-10-23T07:55:56.648Z,29.95
2023-10-23T07:56:58.692Z,30.37
2023-10-23T07:58:01.411Z,30.36
2023-10-23T07:59:03.541Z,30.29
2023-10-23T08:00:07.367Z,30.03
2023-10-23T08:01:11.482Z,29.73
2023-10-23T08:02:13.268Z,29.82
2023-10-23T08:03:15.080Z,30.52
2023-10-23T08:04:17.853Z,28.69
2023-10-23T08:05:19.688Z,28.81
2023-10-23T08:06:21.400Z,28.05
2023-10-23T08:07:23.027Z,29.17
2023-10-23T08:08:24.635Z,26.78
2023-10-23T08:09:26.377Z,27.37
2023-10-23T08:10:28.012Z,28.05
2023-10-23T08:11:29.609Z,27.48
2023-10-23T08:12:31.266Z,28.08
2023-10-23T08:13:33.795Z,27.84
2023-10-23T08:14:35.466Z,29.34
2023-10-23T08:15:39.418Z,29.62
2023-10-23T08:16:41.158Z,29.12
2023-10-23T08:17:43.339Z,29.74
2023-10-23T08:18:45.083Z,28.82
2023-10-23T08:19:46.896Z,30.00
2023-10-23T08:20:48.630Z,29.31
2023-10-23T08:21:50.368Z,29.12
2023-10-23T08:22:52.011Z,28.08
2023-10-23T08:23:59.492Z,28.07
2023-10-23T08:25:01.198Z,27.62
2023-10-23T08:26:02.911Z,26.20
2023-10-23T08:27:04.689Z,26.95
2023-10-23T08:28:06.312Z,26.83
2023-10-23T08:29:08.036Z,26.72
2023-10-23T08:30:10.152Z,26.05
2023-10-23T08:31:24.652Z,25.38
2023-10-23T08:32:34.314Z,24.80
2023-10-23T08:33:39.665Z,26.16
2023-10-23T08:34:41.349Z,25.45
2023-10-23T08:35:42.962Z,25.12
2023-10-23T08:36:44.666Z,24.65
2023-10-23T08:37:46.716Z,25.35
2023-10-23T08:38:48.626Z,25.52
2023-10-23T08:39:50.231Z,24.52
2023-10-23T08:40:52.168Z,24.55
2023-10-23T08:41:55.571Z,25.23
2023-10-23T08:42:57.261Z,25.43
2023-10-23T08:43:59.235Z,24.54
2023-10-23T08:45:01.145Z,25.22
2023-10-23T08:46:02.893Z,24.44
2023-10-23T08:47:05.068Z,25.71
2023-10-23T08:48:06.967Z,24.97
2023-10-23T08:49:08.782Z,24.29
2023-10-23T08:50:11.617Z,23.68
2023-10-23T08:51:15.799Z,23.12
2023-10-23T08:52:20.692Z,23.99
2023-10-23T08:53:25.668Z,23.61
2023-10-23T08:54:28.565Z,24.19
2023-10-23T08:55:30.385Z,24.02
2023-10-23T08:56:40.363Z,23.95
2023-10-23T08:57:53.723Z,23.90
2023-10-23T08:59:00.787Z,23.96
2023-10-23T09:00:02.575Z,23.77
2023-10-23T09:01:04.837Z,24.42
2023-10-23T09:02:06.808Z,23.68
2023-10-23T09:03:11.267Z,24.43
2023-10-23T09:04:13.585Z,23.98
2023-10-23T09:05:15.652Z,24.15
2023-10-23T09:06:19.367Z,23.49
2023-10-23T09:07:21.056Z,23.35
2023-10-23T09:08:22.682Z,22.94
2023-10-23T09:09:25.380Z,23.71
2023-10-23T09:10:27.488Z,24.05
2023-10-23T09:11:39.786Z,24.59
2023-10-23T09:12:41.706Z,24.19
2023-10-23T09:13:43.396Z,24.48
2023-10-23T09:14:45.228Z,24.40
2023-10-23T09:15:52.855Z,24.75
2023-10-23T09:16:57.050Z,25.17
2023-10-23T09:18:00.105Z,25.13
2023-10-23T09:19:01.852Z,25.58
2023-10-23T09:20:20.198Z,24.19
2023-10-23T09:21:23.043Z,24.59
2023-10-23T09:22:29.355Z,24.84
2023-10-23T09:23:31.012Z,24.80
2023-10-23T09:24:32.904Z,24.48
2023-10-23T09:25:34.910Z,25.57
2023-10-23T09:26:36.524Z,25.19
2023-10-23T09:27:38.147Z,25.92
2023-10-23T09:28:39.715Z,26.13
2023-10-23T09:29:41.468Z,26.87
2023-10-23T09:30:43.720Z,26.77
2023-10-23T09:31:45.451Z,27.69
2023-10-23T09:32:54.542Z,26.87
2023-10-23T09:33:56.696Z,26.84
2023-10-23T09:34:58.447Z,26.98
2023-10-23T09:36:02.244Z,25.16
2023-10-23T09:37:04.117Z,24.81
2023-10-23T09:38:16.306Z,25.01
2023-10-23T09:39:23.787Z,25.33
2023-10-23T09:40:25.797Z,26.63
2023-10-23T09:41:28.755Z,26.44
2023-10-23T09:42:33.396Z,26.33
2023-10-23T09:43:35.850Z,26.69
2023-10-23T09:44:40.084Z,25.95
2023-10-23T09:45:43.510Z,25.39
2023-10-23T09:46:49.430Z,24.38
2023-10-23T09:47:56.067Z,24.51
2023-10-23T09:49:01.715Z,25.73
2023-10-23T09:50:05.125Z,25.85
2023-10-23T09:51:08.608Z,26.21
2023-10-23T09:52:11.322Z,25.04
2023-10-23T09:53:14.283Z,25.75
2023-10-23T09:54:19.017Z,25.87
2023-10-23T09:55:24.229Z,24.75
2023-10-23T09:56:31.868Z,25.56
2023-10-23T09:57:35.248Z,25.20
2023-10-23T09:58:41.885Z,23.69
2023-10-23T09:59:49.785Z,23.89
2023-10-23T10:00:57.015Z,23.57
2023-10-23T10:02:01.958Z,23.24
2023-10-23T10:03:09.572Z,23.93
2023-10-23T10:04:21.863Z,22.71
2023-10-23T10:05:39.091Z,22.57
2023-10-23T10:06:46.870Z,22.57
2023-10-23T10:08:04.383Z,22.66
2023-10-23T10:09:13.446Z,22.08
2023-10-23T10:10:15.998Z,21.83
2023-10-23T10:11:19.435Z,22.04
2023-10-23T10:12:22.367Z,22.95
2023-10-23T10:13:24.790Z,21.61
2023-10-23T10:14:28.461Z,21.31
2023-10-23T10:15:32.468Z,23.20
2023-10-23T10:16:35.089Z,22.89
2023-10-23T10:17:38.367Z,21.51
2023-10-23T10:18:40.680Z,22.33
2023-10-23T10:19:42.873Z,22.67
2023-10-23T10:20:48.389Z,22.86
2023-10-23T10:22:16.091Z,22.67
2023-10-23T10:23:19.491Z,23.74
2023-10-23T10:24:22.109Z,23.39
2023-10-23T10:25:26.285Z,23.36
2023-10-23T10:26:28.134Z,23.10
2023-10-23T10:27:29.879Z,23.95
2023-10-23T10:28:31.680Z,23.35
2023-10-23T10:29:33.368Z,23.85
2023-10-23T10:30:48.083Z,24.00
2023-10-23T10:32:13.934Z,23.05
2023-10-23T10:34:24.350Z,23.42
2023-10-23T10:34:46.446Z,23.24
2023-10-23T10:35:51.447Z,22.62
2023-10-23T10:36:54.725Z,22.61
2023-10-23T10:38:00.666Z,22.97
2023-10-23T10:39:02.314Z,22.81
2023-10-23T10:40:06.159Z,22.89
2023-10-23T10:41:14.014Z,23.04
2023-10-23T10:42:23.139Z,23.38
2023-10-23T10:43:38.812Z,22.46
2023-10-23T10:45:03.117Z,22.79
2023-10-23T10:46:24.613Z,24.28
2023-10-23T10:47:38.357Z,22.95
2023-10-23T10:48:45.317Z,23.16
2023-10-23T10:49:48.141Z,23.41
2023-10-23T10:50:49.743Z,23.67
2023-10-23T10:51:52.102Z,23.93
2023-10-23T10:52:53.710Z,23.62
2023-10-23T10:54:18.233Z,25.16
2023-10-23T10:55:19.938Z,24.01
2023-10-23T10:56:21.824Z,24.21
2023-10-23T10:57:23.636Z,24.45
2023-10-23T10:58:25.800Z,24.44
2023-10-23T10:59:27.763Z,24.67
2023-10-23T11:00:30.972Z,24.21
2023-10-23T11:01:34.147Z,25.36
2023-10-23T11:02:36.205Z,25.12
2023-10-23T11:03:38.248Z,25.16
2023-10-23T11:04:40.061Z,25.29
2023-10-23T11:05:45.827Z,26.73
2023-10-23T11:06:47.450Z,25.57
2023-10-23T11:07:50.772Z,26.21
2023-10-23T11:08:52.920Z,27.03
2023-10-23T11:09:55.330Z,26.55
2023-10-23T11:11:05.946Z,25.41
2023-10-23T11:12:08.134Z,26.01
2023-10-23T11:13:14.603Z,26.19
2023-10-23T11:14:16.694Z,27.86
2023-10-23T11:15:19.335Z,26.85
2023-10-23T11:16:21.912Z,27.75
2023-10-23T11:17:24.402Z,27.59
2023-10-23T11:18:26.623Z,27.48
2023-10-23T11:19:28.855Z,27.80
2023-10-23T11:20:32.598Z,28.41
2023-10-23T11:21:34.385Z,29.14
2023-10-23T11:22:39.446Z,28.33
2023-10-23T11:23:41.064Z,27.91
2023-10-23T11:24:43.603Z,28.47
2023-10-23T11:25:49.917Z,29.27
2023-10-23T11:26:51.462Z,28.39
2023-10-23T11:27:53.487Z,29.58
2023-10-23T11:28:55.136Z,28.85
2023-10-23T11:29:56.861Z,29.44
2023-10-23T11:31:01.375Z,29.22
2023-10-23T11:32:05.118Z,29.52
2023-10-23T11:33:08.837Z,30.09
2023-10-23T11:34:13.313Z,29.55
2023-10-23T11:35:14.910Z,30.60
2023-10-23T11:36:18.528Z,30.45
2023-10-23T11:37:20.671Z,30.18
2023-10-23T11:38:25.353Z,30.10
2023-10-23T11:39:32.117Z,30.54
2023-10-23T11:40:36.093Z,30.49
2023-10-23T11:41:37.716Z,30.47
2023-10-23T11:42:50.819Z,30.04
2023-10-23T11:44:01.298Z,29.71
2023-10-23T11:45:03.969Z,30.57
2023-10-23T11:46:06.044Z,30.50
2023-10-23T11:47:09.141Z,31.20
2023-10-23T11:48:13.413Z,31.47
2023-10-23T11:49:19.628Z,31.04
2023-10-23T11:50:23.038Z,31.42
2023-10-23T11:51:25.372Z,32.17
2023-10-23T11:52:27.008Z,31.16
2023-10-23T11:53:34.160Z,32.19
2023-10-23T11:54:35.744Z,32.51
2023-10-23T11:55:39.164Z,32.35
2023-10-23T11:56:43.900Z,32.66
2023-10-23T11:57:52.099Z,32.85
2023-10-23T11:58:56.102Z,33.19
2023-10-23T11:59:57.720Z,32.62
2023-10-23T12:00:59.418Z,33.10
2023-10-23T12:02:02.883Z,33.10
2023-10-23T12:03:07.729Z,33.68
2023-10-23T12:04:09.782Z,33.37
2023-10-23T12:05:13.444Z,33.09
2023-10-23T12:06:15.211Z,32.30
2023-10-23T12:07:16.885Z,33.46
2023-10-23T12:08:18.545Z,32.93
2023-10-23T12:09:20.273Z,33.54
2023-10-23T12:10:26.694Z,33.31
2023-10-23T12:11:29.849Z,33.60
2023-10-23T12:12:31.413Z,33.57
2023-10-23T12:13:33.146Z,32.99
2023-10-23T12:14:34.743Z,33.42
2023-10-23T12:15:36.337Z,32.72
2023-10-23T12:16:38.046Z,33.33
2023-10-23T12:17:40.487Z,33.51
2023-10-23T12:18:42.826Z,33.41
2023-10-23T12:19:44.430Z,33.69
2023-10-23T12:20:46.059Z,33.31
2023-10-23T12:21:47.723Z,33.29
2023-10-23T12:22:50.160Z,33.52
2023-10-23T12:23:52.380Z,33.68
2023-10-23T12:24:53.982Z,32.87
2023-10-23T12:25:55.767Z,32.70
2023-10-23T12:26:59.100Z,32.65
2023-10-23T12:28:00.931Z,33.04
2023-10-23T12:29:06.361Z,32.84
2023-10-23T12:30:10.139Z,33.14
2023-10-23T12:31:23.535Z,33.38
2023-10-23T12:33:13.959Z,33.34
2023-10-23T12:33:50.286Z,33.20
2023-10-23T12:34:52.143Z,32.97
2023-10-23T12:35:53.937Z,33.11
2023-10-23T12:36:55.628Z,32.86
2023-10-23T12:37:57.225Z,33.25
2023-10-23T12:38:58.797Z,33.46
2023-10-23T12:40:03.937Z,34.22
2023-10-23T12:41:05.592Z,33.85
2023-10-23T12:42:07.274Z,33.12
2023-10-23T12:43:09.007Z,33.43
2023-10-23T12:44:10.654Z,32.92
2023-10-23T12:45:12.332Z,33.61
2023-10-23T12:46:14.026Z,33.94
2023-10-23T12:47:15.895Z,33.30
2023-10-23T12:48:17.945Z,33.15
2023-10-23T12:49:19.610Z,32.99
2023-10-23T12:50:21.641Z,33.07
2023-10-23T12:51:23.642Z,33.88
2023-10-23T12:52:25.289Z,33.17
2023-10-23T12:53:27.069Z,33.48
2023-10-23T12:54:28.784Z,33.36
2023-10-23T12:55:30.466Z,33.40
2023-10-23T12:56:33.014Z,33.25
2023-10-23T12:57:34.601Z,33.26
2023-10-23T12:58:36.372Z,33.97
2023-10-23T12:59:38.125Z,33.46
2023-10-23T13:00:39.913Z,33.88
2023-10-23T13:01:41.634Z,33.53
2023-10-23T13:02:44.086Z,33.64
2023-10-23T13:03:48.433Z,33.14
2023-10-23T13:04:50.258Z,33.65
2023-10-23T13:05:52.012Z,34.61
2023-10-23T13:06:54.762Z,33.69
2023-10-23T13:07:56.613Z,34.41
2023-10-23T13:08:58.217Z,34.10
2023-10-23T13:09:59.791Z,34.89
2023-10-23T13:11:02.104Z,34.94
2023-10-23T13:12:04.115Z,34.83
2023-10-23T13:13:05.723Z,34.53
2023-10-23T13:14:07.320Z,34.95
2023-10-23T13:15:09.332Z,35.05
2023-10-23T13:16:11.907Z,34.88
2023-10-23T13:17:15.368Z,34.62
2023-10-23T13:18:17.038Z,35.47
2023-10-23T13:19:19.429Z,34.80
2023-10-23T13:21:30.612Z,34.55
2023-10-23T13:21:42.694Z,34.54
2023-10-23T13:22:46.747Z,34.81
2023-10-23T13:23:52.642Z,35.44
2023-10-23T13:24:54.318Z,35.81
2023-10-23T13:26:10.192Z,35.32
2023-10-23T13:27:16.885Z,34.40
2023-10-23T13:28:18.547Z,33.89
2023-10-23T13:29:21.022Z,33.97
2023-10-23T13:30:22.989Z,33.60